createdAt,value
2023-03-10T00:55:18.450Z,6.57
2023-03-10T01:49:41.755Z,7.22
2023-03-10T01:54:20.984Z,7.13
2023-03-10T02:26:30.810Z,7.53
2023-03-10T02:29:58.969Z,7.97
2023-03-10T02:33:48.662Z,7.90
2023-03-10T02:36:59.783Z,7.63
2023-03-10T02:40:32.873Z,7.47
2023-03-10T02:44:14.288Z,8.02
2023-03-10T02:47:44.313Z,7.07
2023-03-10T02:51:06.390Z,8.45
2023-03-10T02:54:31.976Z,8.43
2023-03-10T02:57:50.137Z,7.40
2023-03-10T03:01:14.029Z,7.65
2023-03-10T03:04:36.446Z,8.02
2023-03-10T03:07:55.808Z,7.90
2023-03-10T03:11:19.301Z,8.27
2023-03-10T03:14:54.924Z,7.63
2023-03-10T03:18:20.281Z,8.02
2023-03-10T03:25:47.986Z,7.38
2023-03-10T03:29:30.678Z,7.70
2023-03-10T03:37:28.536Z,9.13
2023-03-10T03:41:06.876Z,8.43
2023-03-10T03:44:37.210Z,8.10
2023-03-10T03:51:38.217Z,8.70
2023-03-10T03:55:16.027Z,8.32
2023-03-10T03:59:17.148Z,8.60
2023-03-10T04:02:51.740Z,8.93
2023-03-10T04:06:38.228Z,8.50
2023-03-10T04:10:33.654Z,8.20
2023-03-10T04:15:00.258Z,8.10
2023-03-10T04:23:14.874Z,7.45
2023-03-10T04:27:15.568Z,6.50
2023-03-10T04:36:06.900Z,7.05
2023-03-10T04:40:28.068Z,6.85
2023-03-10T04:45:52.234Z,7.03
2023-03-10T04:54:20.896Z,6.60
2023-03-10T05:10:46.184Z,8.40
2023-03-10T05:15:02.812Z,8.50
2023-03-10T05:51:03.057Z,9.10
2023-03-10T06:00:07.506Z,8.40
2023-03-10T06:03:35.369Z,7.90
2023-03-10T06:06:56.337Z,8.48
2023-03-10T06:10:13.903Z,8.30
2023-03-10T06:13:41.080Z,8.20
2023-03-10T06:17:07.200Z,9.25
2023-03-10T06:20:52.157Z,9.00
2023-03-10T06:23:59.500Z,8.95
2023-03-10T06:27:02.747Z,9.85
2023-03-10T06:30:29.501Z,9.98
2023-03-10T06:33:53.702Z,10.05
2023-03-10T06:37:15.234Z,14.10
2023-03-10T06:40:26.288Z,9.38
2023-03-10T06:43:33.382Z,9.23
2023-03-10T06:46:39.864Z,10.00
2023-03-10T06:49:56.821Z,9.70
2023-03-10T06:53:21.354Z,10.47
2023-03-10T06:56:36.524Z,13.10
2023-03-10T06:59:42.846Z,11.90
2023-03-10T07:02:59.841Z,10.88
2023-03-10T07:06:09.972Z,10.55
2023-03-10T07:09:18.625Z,10.50
2023-03-10T07:17:08.042Z,12.18
2023-03-10T07:20:24.969Z,10.85
2023-03-10T07:23:30.173Z,10.73
2023-03-10T07:26:58.677Z,11.03
2023-03-10T07:30:14.085Z,11.50
2023-03-10T07:33:41.760Z,11.65
2023-03-10T07:37:02.141Z,11.63
2023-03-10T07:40:31.867Z,11.75
2023-03-10T07:43:48.970Z,9.67
2023-03-10T07:47:02.828Z,9.95
2023-03-10T07:50:32.167Z,11.30
2023-03-10T07:53:50.393Z,11.27
2023-03-10T07:57:14.358Z,17.27
2023-03-10T08:00:43.639Z,9.73
2023-03-10T08:03:55.349Z,9.77
2023-03-10T08:08:05.751Z,9.80
2023-03-10T08:11:25.145Z,9.63
2023-03-10T08:14:43.367Z,9.43
2023-03-10T08:18:09.654Z,9.27
2023-03-10T08:21:31.789Z,10.77
2023-03-10T08:24:52.053Z,12.85
2023-03-10T08:29:23.450Z,9.48
2023-03-10T08:32:34.410Z,9.65
2023-03-10T08:35:41.560Z,9.73
2023-03-10T08:39:02.302Z,9.98
2023-03-10T08:42:35.900Z,9.15
2023-03-10T08:46:46.503Z,8.55
2023-03-10T08:50:11.017Z,8.95
2023-03-10T08:53:31.861Z,8.63
2023-03-10T08:56:59.060Z,9.73
2023-03-10T09:00:16.936Z,9.02
2023-03-10T09:03:40.513Z,9.00
2023-03-10T09:06:48.142Z,9.52
2023-03-10T09:10:15.173Z,8.77
2023-03-10T09:13:43.473Z,8.27
2023-03-10T09:17:10.093Z,8.93
2023-03-10T09:20:29.446Z,9.05
2023-03-10T09:23:38.951Z,10.38
2023-03-10T09:26:58.927Z,9.10
2023-03-10T09:30:22.509Z,8.90
2023-03-10T09:33:40.623Z,9.20
2023-03-10T09:36:45.188Z,10.45
2023-03-10T09:40:17.732Z,10.25
2023-03-10T09:43:51.094Z,7.70
2023-03-10T09:47:21.749Z,6.85
2023-03-10T09:51:35.856Z,6.90
2023-03-10T09:54:59.291Z,6.63
2023-03-10T09:58:05.158Z,7.13
2023-03-10T10:01:34.336Z,6.60
2023-03-10T10:04:54.085Z,6.57
2023-03-10T10:08:21.524Z,5.82
2023-03-10T10:11:29.101Z,5.93
2023-03-10T10:14:51.336Z,6.28
2023-03-10T10:18:47.769Z,5.70
2023-03-10T10:22:11.968Z,5.88
2023-03-10T10:25:24.914Z,6.35
2023-03-10T10:28:45.220Z,5.68
2023-03-10T10:47:41.380Z,6.10
2023-03-10T10:51:15.360Z,4.47
2023-03-10T10:54:33.099Z,4.65
2023-03-10T10:58:01.599Z,4.97
2023-03-10T11:01:15.696Z,4.72
2023-03-10T11:05:03.217Z,5.60
2023-03-10T11:08:40.288Z,5.30
2023-03-10T11:12:07.110Z,4.53
2023-03-10T11:15:45.413Z,4.97
2023-03-10T11:19:28.086Z,4.93
2023-03-10T11:23:02.752Z,4.70
2023-03-10T11:26:24.366Z,4.60
2023-03-10T11:29:34.932Z,4.57
2023-03-10T11:33:18.039Z,4.10
2023-03-10T11:36:55.883Z,3.92
2023-03-10T11:40:36.812Z,4.28
2023-03-10T11:44:57.763Z,3.53
2023-03-10T11:54:40.273Z,4.27
2023-03-10T11:58:15.677Z,3.92
2023-03-10T12:01:46.843Z,3.95
2023-03-10T12:05:16.368Z,3.83
2023-03-10T12:08:38.677Z,3.60
2023-03-10T12:12:26.486Z,3.53
2023-03-10T12:16:31.564Z,3.17
2023-03-10T12:20:30.699Z,3.58
2023-03-10T12:24:14.750Z,3.45
2023-03-10T12:27:32.100Z,2.80
2023-03-10T12:30:56.847Z,3.20
2023-03-10T12:34:26.468Z,3.58
2023-03-10T12:37:36.087Z,2.67
2023-03-10T12:40:50.480Z,2.33
2023-03-10T12:44:20.196Z,2.58
2023-03-10T12:47:57.549Z,2.50
2023-03-10T12:51:15.431Z,2.42
2023-03-10T12:54:49.669Z,2.70
2023-03-10T12:58:07.570Z,2.70
2023-03-10T13:01:27.807Z,3.13
2023-03-10T13:04:41.453Z,2.83
2023-03-10T13:08:06.946Z,2.55
2023-03-10T13:11:40.575Z,3.20
2023-03-10T13:14:48.646Z,3.03
2023-03-10T13:18:38.442Z,2.00
2023-03-10T13:21:52.093Z,2.30
2023-03-10T13:25:03.490Z,2.05
2023-03-10T13:28:16.784Z,1.90
2023-03-10T13:31:43.865Z,2.55
2023-03-10T13:34:52.179Z,2.33
2023-03-10T13:38:22.917Z,1.70
2023-03-10T13:41:37.811Z,1.83
2023-03-10T13:44:54.210Z,1.80
2023-03-10T13:48:23.504Z,2.17
2023-03-10T13:51:44.122Z,1.95
2023-03-10T13:54:51.291Z,2.23
2023-03-10T13:58:17.235Z,2.15
2023-03-10T14:02:07.350Z,2.42
2023-03-10T14:05:54.604Z,2.28
2023-03-10T14:09:25.736Z,2.30
2023-03-10T14:12:50.951Z,2.10
2023-03-10T14:16:13.081Z,1.85
2023-03-10T14:19:43.278Z,2.60
2023-03-10T14:22:54.580Z,1.70
2023-03-10T14:26:23.336Z,1.75
2023-03-10T14:29:45.920Z,1.50
2023-03-10T14:33:56.750Z,2.00
2023-03-10T14:43:40.913Z,1.90
2023-03-10T14:48:18.199Z,2.10
2023-03-10T14:54:28.402Z,2.07
2023-03-10T15:01:47.034Z,1.92
2023-03-10T15:23:37.003Z,3.00
2023-03-10T15:39:54.772Z,5.25
2023-03-10T16:13:04.597Z,5.43
2023-03-10T16:17:34.987Z,3.92
2023-03-10T16:28:49.434Z,3.60
2023-03-10T17:01:30.648Z,4.18
2023-03-10T17:05:51.385Z,3.80
2023-03-10T17:52:20.541Z,4.80
2023-03-10T17:57:02.342Z,5.60
2023-03-10T18:01:25.877Z,5.90
2023-03-10T18:06:13.511Z,5.20
2023-03-10T18:22:01.321Z,4.27
2023-03-10T18:35:07.353Z,2.60
2023-03-10T18:39:17.250Z,2.20
2023-03-10T18:43:33.773Z,2.50
2023-03-10T18:47:57.821Z,2.17
2023-03-10T18:56:34.268Z,2.70
2023-03-10T19:04:42.149Z,2.47
2023-03-10T19:09:15.310Z,2.30
2023-03-10T19:17:56.442Z,1.48
2023-03-10T19:21:44.632Z,1.70
2023-03-10T19:25:42.421Z,1.63
2023-03-10T19:30:48.066Z,1.90
2023-03-10T19:39:06.982Z,2.58
2023-03-10T19:52:12.849Z,3.00
2023-03-10T19:56:40.539Z,3.30
2023-03-10T20:01:04.915Z,3.10
2023-03-10T20:11:00.954Z,3.70
2023-03-10T20:25:12.790Z,3.30
2023-03-10T20:30:26.038Z,3.60
2023-03-10T20:46:28.722Z,4.15
2023-03-10T20:48:59.439Z,4.47
2023-03-10T21:08:25.342Z,4.65
2023-03-10T21:13:09.255Z,3.97
2023-03-10T21:18:05.739Z,4.47
2023-03-10T21:22:17.020Z,5.10
2023-03-10T21:39:41.585Z,3.50
2023-03-10T21:44:01.008Z,3.73
2023-03-10T21:48:44.113Z,4.38
2023-03-10T22:01:43.336Z,5.38
2023-03-10T22:15:36.099Z,4.70
2023-03-10T22:19:58.824Z,4.75
2023-03-10T22:24:04.687Z,5.15
2023-03-10T22:27:32.133Z,4.67
2023-03-10T22:36:25.185Z,3.67
2023-03-10T22:40:54.222Z,2.80
2023-03-10T22:44:52.096Z,2.83
2023-03-10T22:49:28.910Z,2.60
2023-03-10T22:53:41.368Z,2.50
2023-03-10T22:57:32.378Z,2.40
2023-03-10T23:02:22.278Z,2.10
2023-03-10T23:06:38.670Z,2.50
2023-03-10T23:25:11.789Z,0.30
2023-03-10T23:29:17.677Z,0.40
2023-03-10T23:47:53.866Z,0.20
